Time;durP1;ratioP1;P1;durP2;ratioP2;P2;SDS_P1;SDS_P2;PMS_P1;PMS_P2;Temp;Humidity;BMP_temperature;BMP_pressure;BME280_temperature;BME280_humidity;BME280_pressure;Samples;Min_cycle;Max_cycle;Signal;HPM_P1;HPM_P2
2022/12/23 00:00:33;;;;;;;14.52;13.42;;;;;;;3.20;76.81;101251.41;464804;113;930435;-81
2022/12/23 00:01:36;;;;;;;14.34;13.28;;;;;;;3.23;76.80;101259.22;465291;114;922477;-82
2022/12/23 00:02:40;;;;;;;13.76;12.74;;;;;;;3.24;76.76;101251.98;465469;114;922506;-82
2022/12/23 00:03:43;;;;;;;13.99;12.94;;;;;;;3.26;76.77;101263.44;465451;114;930323;-80
2022/12/23 00:04:47;;;;;;;14.67;13.46;;;;;;;3.26;76.77;101258.05;465414;113;922428;-81
2022/12/23 00:05:50;;;;;;;14.69;13.55;;;;;;;3.27;76.70;101246.28;465521;114;927101;-82
2022/12/23 00:06:53;;;;;;;14.88;13.58;;;;;;;3.28;76.80;101239.89;465128;114;922845;-82
2022/12/23 00:07:56;;;;;;;13.30;12.36;;;;;;;3.27;76.70;101238.19;465524;114;930444;-81
2022/12/23 00:08:59;;;;;;;14.45;13.06;;;;;;;3.28;76.80;101234.50;465557;114;922497;-79
2022/12/23 00:10:04;;;;;;;14.04;12.94;;;;;;;3.27;76.76;101225.57;465438;113;922899;-81
2022/12/23 00:11:11;;;;;;;14.04;12.82;;;;;;;3.28;76.63;101232.66;465446;114;922943;-83
2022/12/23 00:15:06;;;;;;;12.83;11.82;;;;;;;3.26;76.54;101223.87;465305;113;922835;-82
2022/12/23 00:16:12;;;;;;;12.49;11.59;;;;;;;3.25;76.55;101222.17;465430;114;922617;-82
2022/12/23 00:17:15;;;;;;;13.05;12.03;;;;;;;3.24;76.62;101217.80;464639;114;922560;-81
2022/12/23 00:18:20;;;;;;;13.77;12.72;;;;;;;3.22;76.50;101221.63;464572;114;922491;-81
2022/12/23 00:19:24;;;;;;;13.35;11.99;;;;;;;3.18;76.56;101218.41;465563;114;922449;-81
2022/12/23 00:20:27;;;;;;;12.99;11.99;;;;;;;3.18;76.56;101218.41;465433;113;922551;-79
2022/12/23 00:21:30;;;;;;;12.20;11.15;;;;;;;3.16;76.42;101216.84;465523;114;922486;-83
2022/12/23 00:23:54;;;;;;;11.54;10.69;;;;;;;3.13;76.41;101212.63;457267;116;922775;-80
2022/12/23 00:24:58;;;;;;;12.52;11.54;;;;;;;3.12;76.53;101204.69;457394;116;922467;-82
2022/12/23 00:26:01;;;;;;;11.59;10.78;;;;;;;3.11;76.49;101206.53;457456;116;922645;-81
2022/12/23 00:27:04;;;;;;;11.81;10.93;;;;;;;3.11;76.51;101202.98;458169;114;923093;-81
2022/12/23 00:28:15;;;;;;;12.02;10.91;;;;;;;3.10;76.46;101204.83;457348;116;922465;-83
2022/12/23 00:29:18;;;;;;;11.03;10.14;;;;;;;3.09;76.55;101203.13;457371;116;922759;-80
2022/12/23 00:30:22;;;;;;;13.18;12.18;;;;;;;3.09;76.55;101203.13;457338;116;922621;-81
2022/12/23 00:31:25;;;;;;;11.54;10.64;;;;;;;3.09;76.53;101203.13;457411;116;922967;-80
2022/12/23 00:32:28;;;;;;;11.74;10.84;;;;;;;3.10;76.49;101203.98;464994;114;922574;-81
2022/12/23 00:33:43;;;;;;;11.93;11.13;;;;;;;3.09;76.46;101205.82;465545;114;930342;-80
2022/12/23 00:34:46;;;;;;;11.69;10.89;;;;;;;3.08;76.55;101200.61;465384;114;922881;-81
2022/12/23 00:35:49;;;;;;;12.16;11.22;;;;;;;3.06;76.44;101200.75;465547;114;922530;-81
2022/12/23 00:36:53;;;;;;;11.32;10.55;;;;;;;3.05;76.41;101203.59;464866;114;922616;-81
2022/12/23 00:37:56;;;;;;;12.21;11.38;;;;;;;3.04;76.40;101209.97;465557;114;923033;-81
2022/12/23 00:43:04;;;;;;;12.03;11.13;;;;;;;3.03;76.54;101197.52;465365;114;922434;-81
2022/12/23 00:44:07;;;;;;;12.13;11.22;;;;;;;3.03;76.73;101200.22;465548;114;922744;-81
2022/12/23 00:45:16;;;;;;;13.39;12.39;;;;;;;3.03;76.63;101197.52;465508;113;922279;-81
2022/12/23 00:46:19;;;;;;;12.63;11.65;;;;;;;3.03;76.73;101192.98;465387;114;922875;-81
2022/12/23 00:50:06;;;;;;;12.51;11.53;;;;;;;3.03;76.69;101197.52;465394;114;922979;-81
2022/12/23 00:51:09;;;;;;;11.92;11.11;;;;;;;3.02;76.60;101201.20;465515;114;922462;-81
2022/12/23 00:52:14;;;;;;;12.73;11.73;;;;;;;3.02;76.68;101193.98;460526;114;922498;-81
2022/12/23 00:53:18;;;;;;;11.87;10.98;;;;;;;3.02;76.65;101196.67;457247;116;922842;-81
2022/12/23 00:54:21;;;;;;;13.14;12.01;;;;;;;3.03;76.71;101194.83;457322;116;922568;-81
2022/12/23 00:55:24;;;;;;;12.04;11.12;;;;;;;3.03;76.62;101194.83;458953;112;922830;-81
2022/12/23 00:56:27;;;;;;;12.39;11.42;;;;;;;3.03;76.66;101194.83;461232;115;922463;-82
2022/12/23 00:57:31;;;;;;;11.25;10.49;;;;;;;3.02;76.47;101195.82;465308;114;923000;-82
2022/12/23 00:58:34;;;;;;;11.86;10.96;;;;;;;3.02;76.55;101198.52;465591;114;922457;-82
2022/12/23 00:59:37;;;;;;;12.07;11.18;;;;;;;3.01;76.51;101194.13;465518;113;923086;-82
2022/12/23 01:06:08;;;;;;;11.41;10.57;;;;;;;2.95;76.53;101190.19;457343;116;922491;-81
2022/12/23 01:07:11;;;;;;;12.00;11.09;;;;;;;2.92;76.46;101191.31;462294;114;922944;-81
2022/12/23 01:08:14;;;;;;;13.23;12.18;;;;;;;2.92;76.51;101194.02;465575;114;922841;-82
2022/12/23 01:09:17;;;;;;;11.56;10.68;;;;;;;2.93;76.54;101193.02;465573;114;922927;-82
2022/12/23 01:10:21;;;;;;;12.62;11.72;;;;;;;2.93;76.63;101193.02;465495;113;923362;-81
2022/12/23 01:11:24;;;;;;;13.64;12.51;;;;;;;2.95;76.51;101187.49;465489;114;930300;-82
2022/12/23 01:12:27;;;;;;;12.72;11.81;;;;;;;2.96;76.45;101196.42;460615;114;923046;-82
2022/12/23 01:13:31;;;;;;;11.96;11.08;;;;;;;2.94;76.45;101188.48;457393;116;930401;-81
2022/12/23 01:14:34;;;;;;;12.33;11.43;;;;;;;2.96;76.54;101191.03;457341;116;922440;-80
2022/12/23 01:15:37;;;;;;;13.68;12.59;;;;;;;2.97;76.57;101184.66;457248;116;930306;-81
2022/12/23 01:16:41;;;;;;;12.47;11.57;;;;;;;2.98;76.68;101189.05;457942;114;922576;-81
2022/12/23 01:17:44;;;;;;;12.19;11.32;;;;;;;2.99;76.55;101180.80;457328;116;922525;-82
2022/12/23 01:18:48;;;;;;;12.16;11.26;;;;;;;3.01;76.67;101186.89;457356;116;930415;-81
2022/12/23 01:19:51;;;;;;;12.81;11.94;;;;;;;3.04;76.58;101191.11;457331;116;922616;-81
2022/12/23 01:20:54;;;;;;;11.87;11.05;;;;;;;3.05;76.63;101190.12;457403;116;922489;-81
2022/12/23 01:21:57;;;;;;;11.97;11.08;;;;;;;3.06;76.44;101194.52;460496;114;922618;-81
2022/12/23 01:23:00;;;;;;;12.63;11.63;;;;;;;3.06;76.38;101194.52;465585;114;922418;-80
2022/12/23 01:24:04;;;;;;;12.44;11.54;;;;;;;3.05;76.42;101190.97;465582;114;922563;-81
2022/12/23 01:25:08;;;;;;;12.31;11.36;;;;;;;3.05;76.44;101188.27;465484;113;922615;-81
2022/12/23 01:26:12;;;;;;;13.01;12.12;;;;;;;3.06;76.33;101179.20;465424;114;922467;-79
2022/12/23 01:27:15;;;;;;;13.19;12.16;;;;;;;3.06;76.28;101181.89;459988;114;924953;-81
2022/12/23 01:28:18;;;;;;;11.91;11.06;;;;;;;3.07;76.28;101177.36;457479;116;922580;-81
2022/12/23 01:29:21;;;;;;;12.49;11.49;;;;;;;3.08;76.38;101189.83;457540;116;922522;-82
2022/12/23 01:30:24;;;;;;;12.01;11.14;;;;;;;3.08;76.22;101176.36;457463;116;922562;-80
2022/12/23 01:31:28;;;;;;;11.51;10.61;;;;;;;3.07;76.33;101172.81;457528;116;922427;-80
2022/12/23 01:32:31;;;;;;;11.93;11.05;;;;;;;3.07;76.36;101178.20;457881;114;922962;-79
2022/12/23 01:33:34;;;;;;;11.78;10.88;;;;;;;3.08;76.26;101171.83;456012;115;922699;-81
2022/12/23 01:34:37;;;;;;;12.31;11.41;;;;;;;3.09;76.34;101180.75;455957;116;922571;-82
2022/12/23 01:35:41;;;;;;;11.65;10.75;;;;;;;3.09;76.30;101175.37;457433;116;922450;-82
2022/12/23 01:36:44;;;;;;;12.61;11.68;;;;;;;3.10;76.22;101174.34;458004;114;922517;-81
2022/12/23 01:37:47;;;;;;;12.84;11.88;;;;;;;3.09;76.18;101169.98;457388;116;922580;-80
2022/12/23 01:38:51;;;;;;;12.41;11.47;;;;;;;3.08;76.18;101177.21;447961;118;923118;-81
2022/12/23 01:39:54;;;;;;;12.37;11.42;;;;;;;3.08;76.13;101173.67;448662;116;922573;-82
2022/12/23 01:40:57;;;;;;;11.71;10.82;;;;;;;3.08;76.24;101169.13;457354;116;930362;-82
2022/12/23 01:43:22;;;;;;;12.18;11.23;;;;;;;3.10;76.36;101172.50;465376;114;923218;-82
2022/12/23 01:44:54;;;;;;;12.18;11.29;;;;;;;3.11;76.31;101166.12;455841;116;922592;-79
2022/12/23 01:45:58;;;;;;;12.65;11.55;;;;;;;3.10;76.24;101167.11;460538;114;923133;-82
2022/12/23 01:47:05;;;;;;;13.03;12.11;;;;;;;3.10;76.12;101168.95;465288;114;922475;-82
2022/12/23 01:48:11;;;;;;;12.24;11.37;;;;;;;3.09;76.16;101173.48;464636;114;928748;-80
2022/12/23 01:49:14;;;;;;;12.45;11.47;;;;;;;3.10;76.15;101174.34;465452;114;922477;-81
2022/12/23 01:50:31;;;;;;;12.56;11.54;;;;;;;3.09;76.23;101164.59;465623;113;922587;-79
2022/12/23 01:51:35;;;;;;;11.76;10.97;;;;;;;3.08;76.08;101162.89;465385;114;922553;-81
2022/12/23 01:52:41;;;;;;;12.44;11.53;;;;;;;3.08;76.11;101160.20;457529;116;922521;-79
2022/12/23 01:53:48;;;;;;;12.06;11.16;;;;;;;3.08;76.25;101165.59;457407;116;922811;-82
2022/12/23 01:54:52;;;;;;;12.49;11.58;;;;;;;3.08;76.19;101160.20;457349;115;922976;-81
2022/12/23 01:56:08;;;;;;;11.84;10.94;;;;;;;3.09;76.16;101172.67;464927;113;922566;-82
2022/12/23 01:57:11;;;;;;;10.96;10.16;;;;;;;3.08;76.14;101165.59;465106;114;922396;-81
2022/12/23 01:58:21;;;;;;;13.36;12.32;;;;;;;3.08;76.24;101157.50;465527;114;922624;-82
2022/12/23 02:03:42;;;;;;;12.97;12.02;;;;;;;3.07;76.15;101155.80;465433;114;922982;-80
2022/12/23 02:04:48;;;;;;;12.44;11.54;;;;;;;3.07;76.13;101155.80;465421;113;922547;-81
2022/12/23 02:05:52;;;;;;;13.17;12.19;;;;;;;3.06;76.15;101159.48;465399;114;922899;-82
2022/12/23 02:09:39;;;;;;;11.36;10.54;;;;;;;3.07;76.15;101142.33;465434;113;922483;-82
2022/12/23 02:10:52;;;;;;;12.15;11.15;;;;;;;3.07;76.14;101155.80;465529;114;922468;-80
2022/12/23 02:12:20;;;;;;;12.50;11.44;;;;;;;3.06;76.13;101152.26;464200;114;922600;-81
2022/12/23 02:13:35;;;;;;;12.28;11.40;;;;;;;3.07;76.22;101151.27;465446;114;922572;-79
2022/12/23 02:16:19;;;;;;;11.39;10.53;;;;;;;3.06;76.20;101148.71;465383;114;922601;-80
2022/12/23 02:17:26;;;;;;;12.64;11.66;;;;;;;3.07;76.27;101150.41;465226;114;922714;-80
2022/12/23 02:18:52;;;;;;;11.84;11.04;;;;;;;3.08;76.36;101146.73;465272;114;930273;-80
2022/12/23 02:20:24;;;;;;;11.95;11.06;;;;;;;3.09;76.47;101141.16;465444;113;922515;-81
2022/12/23 02:21:43;;;;;;;11.59;10.79;;;;;;;3.11;76.47;101149.09;465479;114;922468;-80
2022/12/23 02:22:56;;;;;;;11.79;10.86;;;;;;;3.12;76.45;101143.56;457364;116;922831;-81
2022/12/23 02:24:34;;;;;;;12.10;11.18;;;;;;;3.11;76.42;101144.56;456867;116;922493;-81
2022/12/23 02:26:03;;;;;;;11.20;10.40;;;;;;;3.12;76.36;101142.72;448745;118;922417;-82
2022/12/23 02:27:33;;;;;;;12.07;11.10;;;;;;;3.11;76.30;101149.95;448655;118;922876;-83
2022/12/23 02:28:43;;;;;;;11.09;10.24;;;;;;;3.11;76.31;101154.48;464981;114;922671;-81
2022/12/23 02:30:22;;;;;;;11.32;10.42;;;;;;;3.09;76.37;101141.16;465425;113;923029;-81
2022/12/23 02:31:54;;;;;;;11.06;10.21;;;;;;;3.09;76.54;101143.04;465369;114;922537;-82
2022/12/23 02:33:10;;;;;;;11.48;10.58;;;;;;;3.09;76.61;101141.16;457392;116;922515;-81
2022/12/23 02:34:20;;;;;;;10.97;10.17;;;;;;;3.10;76.49;101145.55;457251;116;922986;-82
2022/12/23 02:35:35;;;;;;;11.09;10.24;;;;;;;3.10;76.61;101142.02;457245;115;923020;-81
2022/12/23 02:36:57;;;;;;;11.44;10.63;;;;;;;3.11;76.59;101141.87;458039;114;922554;-81
2022/12/23 02:38:18;;;;;;;11.82;11.02;;;;;;;3.13;76.77;101141.72;465498;114;922904;-81
2022/12/23 02:39:28;;;;;;;11.34;10.35;;;;;;;3.17;76.73;101133.17;455707;116;922795;-82
2022/12/23 02:40:43;;;;;;;10.83;10.07;;;;;;;3.20;76.79;101137.39;457192;114;922393;-81
2022/12/23 02:42:07;;;;;;;10.13;9.39;;;;;;;3.23;76.86;101142.49;464048;114;922424;-82
2022/12/23 02:43:19;;;;;;;11.18;10.32;;;;;;;3.27;76.95;101138.48;466647;114;922181;-80
2022/12/23 02:44:26;;;;;;;11.22;10.29;;;;;;;3.30;77.00;101136.34;466182;112;922068;-80
2022/12/23 02:45:36;;;;;;;11.21;10.41;;;;;;;3.34;76.87;101142.27;466660;113;922141;-79
2022/12/23 02:46:46;;;;;;;11.52;10.72;;;;;;;3.36;76.80;101146.48;466006;114;922434;-80
2022/12/23 02:47:53;;;;;;;11.32;10.47;;;;;;;3.38;76.78;101138.25;466439;114;922168;-80
2022/12/23 02:49:06;;;;;;;10.74;9.96;;;;;;;3.39;76.64;101141.80;466355;114;929538;-79
2022/12/23 02:50:13;;;;;;;11.38;10.58;;;;;;;3.39;76.41;101133.70;466759;109;922125;-80
2022/12/23 02:51:19;;;;;;;10.88;10.10;;;;;;;3.38;76.38;101138.25;466624;109;922137;-80
2022/12/23 02:52:26;;;;;;;10.67;9.91;;;;;;;3.40;76.42;101140.80;466474;114;921985;-80
2022/12/23 02:53:42;;;;;;;10.12;9.27;;;;;;;3.41;76.45;101137.95;457775;111;922110;-81
2022/12/23 02:54:51;;;;;;;9.72;9.01;;;;;;;3.44;76.43;101139.48;456986;113;922241;-80
2022/12/23 02:55:56;;;;;;;9.82;9.10;;;;;;;3.47;76.45;101139.19;450622;112;921993;-79
2022/12/23 02:57:03;;;;;;;10.48;9.72;;;;;;;3.50;76.43;101144.25;458688;114;922414;-80
2022/12/23 02:58:10;;;;;;;10.78;9.80;;;;;;;3.51;76.34;101138.71;458588;116;922155;-79
2022/12/23 02:59:17;;;;;;;11.02;10.27;;;;;;;3.53;76.41;101139.38;458588;115;922117;-80
2022/12/23 03:00:21;;;;;;;11.13;10.28;;;;;;;3.54;76.27;101134.84;458619;115;922155;-79
2022/12/23 03:01:28;;;;;;;9.98;9.28;;;;;;;3.56;76.33;101140.94;458616;115;922168;-79
2022/12/23 03:02:37;;;;;;;10.00;9.20;;;;;;;3.58;76.25;101145.19;465999;113;922060;-79
2022/12/23 03:03:41;;;;;;;11.22;10.35;;;;;;;3.60;76.27;101143.16;466728;114;922494;-79
2022/12/23 03:04:44;;;;;;;10.06;9.26;;;;;;;3.62;76.25;101141.16;466848;114;921988;-78
2022/12/23 03:05:49;;;;;;;11.21;10.39;;;;;;;3.64;76.29;101141.84;458015;113;922126;-80
2022/12/23 03:06:54;;;;;;;10.11;9.32;;;;;;;3.67;76.27;101138.84;466269;114;922168;-79
2022/12/23 03:08:03;;;;;;;11.41;10.47;;;;;;;3.69;76.12;101139.52;466726;114;922225;-79
2022/12/23 03:09:07;;;;;;;11.47;10.53;;;;;;;3.71;76.10;101136.67;466719;111;922019;-80
2022/12/23 03:10:20;;;;;;;11.65;10.78;;;;;;;3.73;76.08;101134.67;466818;113;922231;-80
2022/12/23 03:11:27;;;;;;;10.25;9.52;;;;;;;3.75;76.13;101132.64;466492;111;922196;-82
2022/12/23 03:12:34;;;;;;;11.27;10.47;;;;;;;3.77;76.06;101131.50;465164;114;923392;-82
2022/12/23 03:13:59;;;;;;;10.74;10.01;;;;;;;3.80;76.08;101132.20;465647;114;922479;-82
2022/12/23 03:15:29;;;;;;;9.47;8.77;;;;;;;3.81;76.09;101132.02;455767;115;922749;-82
2022/12/23 03:16:41;;;;;;;10.61;9.81;;;;;;;3.82;76.04;101139.11;465178;114;922536;-82
2022/12/23 03:18:15;;;;;;;10.29;9.49;;;;;;;3.82;75.91;101124.77;456762;116;922492;-81
2022/12/23 03:19:31;;;;;;;10.61;9.79;;;;;;;3.83;75.88;101134.56;457205;116;922434;-81
2022/12/23 03:20:49;;;;;;;10.34;9.58;;;;;;;3.80;75.93;101133.05;457419;115;922414;-81
2022/12/23 03:21:56;;;;;;;10.63;9.73;;;;;;;3.78;75.84;101129.66;460370;114;922569;-81
2022/12/23 03:23:06;;;;;;;10.17;9.41;;;;;;;3.77;75.80;101136.05;464658;114;922484;-81
2022/12/23 03:24:28;;;;;;;10.59;9.81;;;;;;;3.75;75.74;101138.03;465446;114;922487;-81
2022/12/23 03:25:35;;;;;;;10.58;9.63;;;;;;;3.74;75.76;101131.83;455917;116;922381;-82
2022/12/23 03:26:41;;;;;;;9.91;9.11;;;;;;;3.73;75.77;101138.22;454854;116;923149;-81
2022/12/23 03:27:48;;;;;;;10.84;9.97;;;;;;;3.73;75.75;101140.06;464677;114;922506;-83
2022/12/23 03:29:14;;;;;;;9.78;9.03;;;;;;;3.74;75.89;101131.83;465334;114;922461;-81
2022/12/23 03:30:19;;;;;;;10.30;9.50;;;;;;;3.75;75.71;101133.49;465015;113;923104;-82
2022/12/23 03:31:26;;;;;;;9.49;8.74;;;;;;;3.74;75.65;101125.58;465439;114;922583;-81
2022/12/23 03:32:35;;;;;;;10.52;9.70;;;;;;;3.74;75.67;101125.58;465181;114;922861;-81
2022/12/23 03:33:44;;;;;;;10.38;9.63;;;;;;;3.75;75.85;101122.70;465042;114;923000;-81
2022/12/23 03:34:49;;;;;;;10.71;9.72;;;;;;;3.77;75.76;101130.65;465443;113;922428;-82
2022/12/23 03:35:56;;;;;;;10.26;9.39;;;;;;;3.77;75.82;101134.20;465468;114;923315;-82
2022/12/23 03:37:03;;;;;;;10.68;9.81;;;;;;;3.77;75.61;101131.50;462030;114;922767;-81
2022/12/23 03:38:07;;;;;;;9.91;9.07;;;;;;;3.79;75.63;101142.14;457245;116;922639;-80
2022/12/23 03:39:13;;;;;;;9.86;9.11;;;;;;;3.77;75.58;101136.05;457259;116;922788;-81
2022/12/23 03:40:20;;;;;;;9.73;8.99;;;;;;;3.77;75.44;101128.80;457288;116;922643;-80
2022/12/23 03:41:27;;;;;;;10.06;9.24;;;;;;;3.76;75.53;101135.19;457227;116;922849;-80
2022/12/23 03:42:34;;;;;;;10.26;9.36;;;;;;;3.76;75.46;101132.49;465276;114;922481;-80
2022/12/23 03:43:41;;;;;;;9.58;8.88;;;;;;;3.77;75.61;101127.95;465394;114;922491;-82
2022/12/23 03:44:49;;;;;;;10.26;9.49;;;;;;;3.80;75.51;101129.50;464361;114;922518;-79
2022/12/23 03:45:57;;;;;;;10.24;9.43;;;;;;;3.81;75.56;101128.47;462346;114;922527;-82
2022/12/23 03:47:10;;;;;;;9.76;8.91;;;;;;;3.81;75.55;101131.17;455620;115;922665;-82
2022/12/23 03:48:29;;;;;;;9.94;9.22;;;;;;;3.78;75.39;101124.26;457791;114;922935;-82
2022/12/23 03:49:36;;;;;;;9.92;9.02;;;;;;;3.79;75.47;101125.95;455903;116;922556;-81
2022/12/23 03:50:49;;;;;;;10.21;9.36;;;;;;;3.89;75.46;101131.23;477265;110;947137;-83
2022/12/23 03:52:05;;;;;;;10.54;9.51;;;;;;;3.76;75.43;101128.95;462426;112;922884;-82
2022/12/23 03:53:11;;;;;;;9.31;8.61;;;;;;;3.75;75.36;101124.55;456000;116;922856;-82
2022/12/23 03:54:18;;;;;;;10.41;9.61;;;;;;;3.75;75.49;101130.80;456075;116;922524;-80
2022/12/23 03:55:25;;;;;;;10.34;9.54;;;;;;;3.76;75.51;101126.25;462282;113;922596;-80
2022/12/23 03:56:32;;;;;;;9.64;8.97;;;;;;;3.77;75.44;101125.25;468555;113;922559;-81
2022/12/23 03:57:42;;;;;;;9.32;8.69;;;;;;;3.76;75.42;101129.80;463147;114;922518;-82
2022/12/23 03:58:54;;;;;;;10.32;9.44;;;;;;;3.76;75.50;101124.41;463298;114;922497;-83
2022/12/23 03:59:57;;;;;;;9.89;9.05;;;;;;;3.76;75.38;101131.65;463134;114;922888;-81
2022/12/23 04:01:10;;;;;;;9.66;8.97;;;;;;;3.74;75.38;101123.73;463299;114;922472;-84
2022/12/23 04:02:23;;;;;;;9.55;8.75;;;;;;;3.74;75.41;101120.19;463560;112;922530;-81
2022/12/23 04:03:39;;;;;;;9.62;8.87;;;;;;;3.73;75.55;101124.73;463185;114;923019;-81
2022/12/23 04:05:05;;;;;;;10.52;9.73;;;;;;;3.85;75.53;101129.88;470391;110;1203939;-80
2022/12/23 04:06:12;;;;;;;10.43;9.55;;;;;;;3.72;75.40;101131.13;457076;115;922546;-82
2022/12/23 04:07:18;;;;;;;9.58;8.73;;;;;;;3.73;75.38;101130.12;457227;116;922451;-81
2022/12/23 04:08:25;;;;;;;9.32;8.52;;;;;;;3.73;75.48;101130.12;457420;116;922480;-83
2022/12/23 04:09:36;;;;;;;8.97;8.35;;;;;;;3.86;75.48;101131.57;477235;110;947104;-82
2022/12/23 04:10:40;;;;;;;10.21;9.46;;;;;;;3.74;75.42;101137.22;457487;115;922850;-79
2022/12/23 04:11:43;;;;;;;9.58;8.84;;;;;;;3.73;75.45;101132.83;457973;114;922892;-84
2022/12/23 04:12:47;;;;;;;9.93;9.15;;;;;;;3.73;75.47;101127.43;457609;116;922660;-80
2022/12/23 04:13:52;;;;;;;9.66;8.92;;;;;;;3.73;75.50;101131.97;457383;116;930498;-82
2022/12/23 04:14:55;;;;;;;9.52;8.73;;;;;;;3.74;75.50;101129.13;457474;115;922584;-80
2022/12/23 04:16:00;;;;;;;9.09;8.38;;;;;;;3.76;75.56;101137.89;457638;116;922551;-80
2022/12/23 04:17:03;;;;;;;8.81;8.11;;;;;;;3.77;75.51;101138.73;457659;114;922904;-81
2022/12/23 04:18:08;;;;;;;8.39;7.82;;;;;;;3.76;75.46;101140.59;457676;116;922385;-82
2022/12/23 04:19:11;;;;;;;8.79;8.14;;;;;;;3.77;75.46;101138.73;457476;116;922601;-82
2022/12/23 04:20:15;;;;;;;9.35;8.65;;;;;;;3.76;75.43;101135.19;457552;115;930845;-82
2022/12/23 04:21:18;;;;;;;8.42;7.74;;;;;;;3.76;75.49;101137.89;457489;116;930731;-82
2022/12/23 04:22:21;;;;;;;8.42;7.72;;;;;;;3.76;75.51;101132.49;457622;114;930467;-82
2022/12/23 04:23:24;;;;;;;9.15;8.48;;;;;;;3.76;75.50;101137.89;457687;116;923011;-82
2022/12/23 04:24:27;;;;;;;9.05;8.30;;;;;;;3.77;75.61;101139.59;457632;116;922813;-80
2022/12/23 04:25:31;;;;;;;8.48;7.89;;;;;;;3.76;75.54;101143.28;457608;115;922503;-81
2022/12/23 04:26:34;;;;;;;9.43;8.66;;;;;;;3.77;75.56;101141.44;457321;115;922561;-83
2022/12/23 04:27:37;;;;;;;8.81;8.11;;;;;;;3.77;75.63;101147.68;449771;118;922534;-81
2022/12/23 04:28:40;;;;;;;8.86;8.19;;;;;;;3.81;75.70;101142.80;449718;118;922524;-80
2022/12/23 04:29:44;;;;;;;8.92;8.14;;;;;;;3.81;75.82;101144.66;449757;118;928092;-82
2022/12/23 04:30:47;;;;;;;8.07;7.44;;;;;;;3.82;75.74;101143.66;449824;117;922477;-81
2022/12/23 04:31:50;;;;;;;8.60;7.77;;;;;;;3.84;75.72;101144.36;452344;114;922675;-83
2022/12/23 04:32:53;;;;;;;8.79;8.01;;;;;;;3.84;75.76;101144.36;457667;116;922438;-82
2022/12/23 04:33:56;;;;;;;8.50;7.78;;;;;;;3.84;75.67;101142.51;457701;115;922924;-83
2022/12/23 04:35:00;;;;;;;8.29;7.63;;;;;;;3.85;75.71;101144.21;457655;115;922449;-81
2022/12/23 04:36:03;;;;;;;8.48;7.86;;;;;;;3.86;75.69;101147.76;457625;116;922740;-80
2022/12/23 04:37:06;;;;;;;8.33;7.69;;;;;;;3.87;75.88;101144.88;453959;114;922758;-81
2022/12/23 04:38:10;;;;;;;8.72;8.02;;;;;;;3.88;75.88;101146.58;449758;118;931105;-81
2022/12/23 04:39:13;;;;;;;7.71;7.11;;;;;;;3.89;75.93;101156.37;449691;118;922602;-81
2022/12/23 04:40:16;;;;;;;8.61;7.82;;;;;;;3.90;75.90;101144.58;449692;117;930479;-80
2022/12/23 04:41:19;;;;;;;8.88;8.18;;;;;;;3.91;75.77;101148.97;449791;118;922567;-81
2022/12/23 04:42:23;;;;;;;9.07;8.35;;;;;;;3.90;75.73;101136.48;456890;114;922858;-82
2022/12/23 04:43:26;;;;;;;9.52;8.51;;;;;;;3.91;75.85;101134.64;457577;116;922632;-80
2022/12/23 04:44:29;;;;;;;7.92;7.33;;;;;;;3.91;75.83;101140.88;457605;116;922922;-80
2022/12/23 04:45:32;;;;;;;7.86;7.28;;;;;;;3.92;75.83;101139.00;457638;115;922562;-82
2022/12/23 04:46:36;;;;;;;9.04;8.34;;;;;;;3.93;75.81;101140.70;457785;114;922991;-81
2022/12/23 04:47:39;;;;;;;8.78;8.08;;;;;;;3.95;75.77;101141.40;457610;116;922516;-81
2022/12/23 04:48:43;;;;;;;8.57;7.93;;;;;;;3.95;75.83;101138.70;457568;116;922594;-81
2022/12/23 04:49:46;;;;;;;8.54;7.69;;;;;;;3.96;75.86;101135.00;457597;115;922586;-82
2022/12/23 04:50:50;;;;;;;8.27;7.65;;;;;;;3.96;75.72;101140.41;457541;116;922897;-82
2022/12/23 04:51:53;;;;;;;8.08;7.38;;;;;;;3.96;75.81;101135.00;457762;114;922834;-82
2022/12/23 04:52:56;;;;;;;8.19;7.58;;;;;;;3.96;75.68;101143.10;457613;116;922490;-80
2022/12/23 04:53:59;;;;;;;10.70;7.89;;;;;;;3.97;75.70;101144.80;457624;116;922394;-82
2022/12/23 04:55:03;;;;;;;8.48;7.87;;;;;;;3.97;75.66;101142.10;457619;115;922954;-83
2022/12/23 04:56:06;;;;;;;8.91;8.12;;;;;;;3.95;75.63;101144.95;457423;116;922913;-79
2022/12/23 04:57:09;;;;;;;8.49;7.78;;;;;;;3.96;75.72;101149.34;457954;114;922564;-80
2022/12/23 04:58:13;;;;;;;8.35;7.75;;;;;;;3.97;75.82;101148.31;457624;116;922478;-81
2022/12/23 04:59:16;;;;;;;8.82;8.15;;;;;;;3.99;75.89;101150.86;457624;116;922696;-82
2022/12/23 05:00:20;;;;;;;7.86;7.26;;;;;;;3.99;75.90;101149.02;457659;115;922964;-82
2022/12/23 05:01:23;;;;;;;8.51;7.86;;;;;;;4.01;75.87;101151.56;457543;116;922554;-80
2022/12/23 05:02:26;;;;;;;9.04;8.34;;;;;;;4.02;75.78;101150.56;457542;114;922540;-81
2022/12/23 05:03:30;;;;;;;9.24;8.56;;;;;;;4.01;75.76;101149.72;457630;116;922605;-81
2022/12/23 05:04:33;;;;;;;8.53;7.92;;;;;;;4.02;75.79;101150.56;457583;116;922503;-83
2022/12/23 05:05:44;;;;;;;9.53;8.75;;;;;;;4.02;75.79;101156.81;457608;116;930480;-82
2022/12/23 05:06:47;;;;;;;9.20;8.44;;;;;;;4.02;75.64;101161.36;457699;114;922571;-80
2022/12/23 05:07:50;;;;;;;8.90;8.21;;;;;;;4.02;75.59;101161.36;457666;116;922566;-80
2022/12/23 05:08:54;;;;;;;8.24;7.66;;;;;;;3.99;75.65;101149.02;457553;116;922970;-81
2022/12/23 05:10:00;;;;;;;9.41;8.71;;;;;;;3.99;75.53;101159.81;457621;115;930476;-81
2022/12/23 05:11:02;;;;;;;9.35;8.63;;;;;;;3.98;75.56;101157.26;457579;115;922506;-83
2022/12/23 05:12:05;;;;;;;8.76;8.09;;;;;;;3.98;75.58;101157.26;459199;115;922884;-82
2022/12/23 05:13:08;;;;;;;9.16;8.49;;;;;;;3.98;75.68;101154.56;461120;115;922557;-79
2022/12/23 05:14:11;;;;;;;9.41;8.64;;;;;;;3.98;75.61;101159.95;461121;115;922470;-81
2022/12/23 05:15:15;;;;;;;8.63;7.85;;;;;;;3.96;75.68;101160.14;461082;115;922564;-81
2022/12/23 05:16:18;;;;;;;9.73;8.94;;;;;;;3.97;75.55;101169.08;461115;115;922439;-81
2022/12/23 05:17:21;;;;;;;8.65;7.91;;;;;;;3.97;75.60;101156.41;458241;115;922877;-80
2022/12/23 05:18:25;;;;;;;8.45;7.86;;;;;;;3.98;75.62;101159.95;457637;116;925529;-82
2022/12/23 05:19:28;;;;;;;9.21;8.41;;;;;;;3.98;75.69;101163.50;457759;116;922374;-81
2022/12/23 05:20:31;;;;;;;9.13;8.53;;;;;;;3.99;75.66;101159.81;457584;116;922530;-81
2022/12/23 05:21:34;;;;;;;9.63;8.93;;;;;;;4.01;75.82;101154.26;457669;115;922622;-81
2022/12/23 05:22:37;;;;;;;9.58;8.78;;;;;;;4.03;75.75;101157.62;449875;118;922544;-80
2022/12/23 05:23:40;;;;;;;9.30;8.59;;;;;;;4.04;75.87;101152.08;449821;118;922530;-81
2022/12/23 05:24:44;;;;;;;10.09;8.87;;;;;;;4.06;75.81;101152.78;449831;117;922567;-80
2022/12/23 05:25:52;;;;;;;9.33;8.36;;;;;;;4.08;75.80;101156.14;449843;118;922544;-82
2022/12/23 05:26:55;;;;;;;9.90;9.11;;;;;;;4.09;75.88;101155.15;450141;116;923042;-83
2022/12/23 05:28:00;;;;;;;9.47;8.76;;;;;;;4.10;75.76;101161.39;449303;117;922500;-82
2022/12/23 05:29:04;;;;;;;12.29;10.09;;;;;;;4.08;75.63;101166.94;449807;117;923181;-80
2022/12/23 05:30:09;;;;;;;9.36;8.64;;;;;;;4.06;75.55;101160.88;449663;118;922965;-82
2022/12/23 05:31:13;;;;;;;9.60;8.76;;;;;;;4.04;75.42;101162.87;449819;118;922584;-83
2022/12/23 05:32:16;;;;;;;9.54;8.71;;;;;;;4.02;75.42;101164.91;442290;118;923041;-81
2022/12/23 05:33:19;;;;;;;10.44;9.58;;;;;;;4.02;75.52;101166.75;441995;118;930577;-82
2022/12/23 05:34:22;;;;;;;9.23;8.41;;;;;;;4.01;75.43;101162.36;449857;117;922471;-81